sensor_id;sensor_type;location;lat;lon;timestamp;pressure;altitude;pressure_sealevel;temperature;humidity
74975;BME280;64061;50.836;19.138;2022-11-13T00:02:34;100104.09;;;23.10;55.59
74975;BME280;64061;50.836;19.138;2022-11-13T00:06:00;100094.47;;;23.13;55.28
74975;BME280;64061;50.836;19.138;2022-11-13T00:09:22;100097.75;;;23.09;55.21
74975;BME280;64061;50.836;19.138;2022-11-13T00:12:45;100095.81;;;23.10;55.50
74975;BME280;64061;50.836;19.138;2022-11-13T00:16:11;100093.91;;;23.10;55.16
74975;BME280;64061;50.836;19.138;2022-11-13T00:19:35;100092.50;;;23.08;55.07
74975;BME280;64061;50.836;19.138;2022-11-13T00:22:58;100092.50;;;23.08;54.96
74975;BME280;64061;50.836;19.138;2022-11-13T00:26:21;100087.00;;;23.08;55.07
74975;BME280;64061;50.836;19.138;2022-11-13T00:29:46;100089.75;;;23.08;54.79
74975;BME280;64061;50.836;19.138;2022-11-13T00:33:08;100097.47;;;23.06;54.61
74975;BME280;64061;50.836;19.138;2022-11-13T00:36:30;100094.44;;;23.07;54.58
74975;BME280;64061;50.836;19.138;2022-11-13T00:39:53;100091.69;;;23.07;54.20
74975;BME280;64061;50.836;19.138;2022-11-13T00:43:19;100099.94;;;23.07;54.19
74975;BME280;64061;50.836;19.138;2022-11-13T00:46:42;100088.66;;;23.09;53.53
74975;BME280;64061;50.836;19.138;2022-11-13T00:50:04;100088.38;;;23.05;54.03
74975;BME280;64061;50.836;19.138;2022-11-13T00:53:27;100091.13;;;23.05;54.12
74975;BME280;64061;50.836;19.138;2022-11-13T00:56:49;100090.28;;;23.05;54.65
74975;BME280;64061;50.836;19.138;2022-11-13T01:00:11;100087.53;;;23.05;54.12
74975;BME280;64061;50.836;19.138;2022-11-13T01:03:35;100071.84;;;23.05;54.32
74975;BME280;64061;50.836;19.138;2022-11-13T01:06:57;100081.50;;;23.03;54.15
74975;BME280;64061;50.836;19.138;2022-11-13T01:10:20;100080.38;;;23.04;53.95
74975;BME280;64061;50.836;19.138;2022-11-13T01:13:44;100074.09;;;23.03;53.95
74975;BME280;64061;50.836;19.138;2022-11-13T01:17:08;100063.88;;;23.04;53.87
74975;BME280;64061;50.836;19.138;2022-11-13T01:20:32;100066.34;;;23.05;53.51
74975;BME280;64061;50.836;19.138;2022-11-13T01:23:55;100065.53;;;23.05;53.56
74975;BME280;64061;50.836;19.138;2022-11-13T01:27:17;100058.38;;;23.04;53.72
74975;BME280;64061;50.836;19.138;2022-11-13T01:30:39;100059.50;;;23.03;53.59
74975;BME280;64061;50.836;19.138;2022-11-13T01:34:01;100056.75;;;23.03;53.73
74975;BME280;64061;50.836;19.138;2022-11-13T01:37:24;100060.59;;;23.02;53.67
74975;BME280;64061;50.836;19.138;2022-11-13T01:40:47;100048.75;;;23.01;53.75
74975;BME280;64061;50.836;19.138;2022-11-13T01:44:12;100040.22;;;23.03;53.53
74975;BME280;64061;50.836;19.138;2022-11-13T01:47:36;100041.59;;;23.00;53.53
74975;BME280;64061;50.836;19.138;2022-11-13T01:50:58;100033.91;;;23.02;53.37
74975;BME280;64061;50.836;19.138;2022-11-13T01:54:25;100033.31;;;23.05;53.16
74975;BME280;64061;50.836;19.138;2022-11-13T01:57:49;100033.06;;;23.02;53.25
74975;BME280;64061;50.836;19.138;2022-11-13T02:01:12;100029.47;;;23.01;53.13
74975;BME280;64061;50.836;19.138;2022-11-13T02:04:34;100029.75;;;23.00;53.21
74975;BME280;64061;50.836;19.138;2022-11-13T02:07:57;100034.44;;;22.99;53.15
74975;BME280;64061;50.836;19.138;2022-11-13T02:11:20;100032.50;;;23.00;53.00
74975;BME280;64061;50.836;19.138;2022-11-13T02:14:45;100026.72;;;23.01;53.09
74975;BME280;64061;50.836;19.138;2022-11-13T02:18:11;100018.75;;;23.00;52.98
74975;BME280;64061;50.836;19.138;2022-11-13T02:21:40;100027.00;;;23.00;52.91
74975;BME280;64061;50.836;19.138;2022-11-13T02:25:09;100021.22;;;23.01;52.86
74975;BME280;64061;50.836;19.138;2022-11-13T02:28:34;100022.06;;;23.02;52.95
74975;BME280;64061;50.836;19.138;2022-11-13T02:31:56;100019.56;;;23.05;52.91
74975;BME280;64061;50.836;19.138;2022-11-13T02:35:21;100016.53;;;23.07;53.08
74975;BME280;64061;50.836;19.138;2022-11-13T02:38:47;100021.50;;;23.05;52.85
74975;BME280;64061;50.836;19.138;2022-11-13T02:42:14;100008.28;;;23.07;52.85
74975;BME280;64061;50.836;19.138;2022-11-13T02:45:36;100004.97;;;23.05;52.94
74975;BME280;64061;50.836;19.138;2022-11-13T02:48:59;100011.56;;;23.04;52.86
74975;BME280;64061;50.836;19.138;2022-11-13T02:52:21;99995.34;;;23.02;52.92
74975;BME280;64061;50.836;19.138;2022-11-13T02:55:43;99997.00;;;23.03;52.86
74975;BME280;64061;50.836;19.138;2022-11-13T02:59:06;100002.53;;;23.03;52.97
74975;BME280;64061;50.836;19.138;2022-11-13T03:02:28;100000.03;;;23.02;52.90
74975;BME280;64061;50.836;19.138;2022-11-13T03:05:50;99997.28;;;23.02;52.79
74975;BME280;64061;50.836;19.138;2022-11-13T03:09:13;99990.69;;;23.03;52.77
74975;BME280;64061;50.836;19.138;2022-11-13T03:12:35;99979.94;;;23.01;52.73
74975;BME280;64061;50.836;19.138;2022-11-13T03:16:06;99986.25;;;23.07;52.42
74975;BME280;64061;50.836;19.138;2022-11-13T03:19:29;99978.84;;;23.02;52.24
74975;BME280;64061;50.836;19.138;2022-11-13T03:22:51;99985.19;;;23.03;52.49
74975;BME280;64061;50.836;19.138;2022-11-13T03:26:14;99988.75;;;23.03;53.10
74975;BME280;64061;50.836;19.138;2022-11-13T03:29:37;99997.28;;;23.02;52.42
74975;BME280;64061;50.836;19.138;2022-11-13T03:33:01;99990.69;;;23.03;52.51
74975;BME280;64061;50.836;19.138;2022-11-13T03:36:24;99993.72;;;23.01;52.37
74975;BME280;64061;50.836;19.138;2022-11-13T03:39:46;100003.06;;;23.00;52.21
74975;BME280;64061;50.836;19.138;2022-11-13T03:43:08;100003.88;;;23.01;52.39
74975;BME280;64061;50.836;19.138;2022-11-13T03:46:30;100001.97;;;23.01;52.44
74975;BME280;64061;50.836;19.138;2022-11-13T03:49:54;99994.53;;;23.02;52.41
74975;BME280;64061;50.836;19.138;2022-11-13T03:53:16;99995.91;;;22.99;52.18
74975;BME280;64061;50.836;19.138;2022-11-13T03:56:38;99996.72;;;23.00;52.56
74975;BME280;64061;50.836;19.138;2022-11-13T04:00:00;99993.97;;;23.00;52.70
74975;BME280;64061;50.836;19.138;2022-11-13T04:03:23;99996.16;;;22.98;52.53
74975;BME280;64061;50.836;19.138;2022-11-13T04:06:47;99989.28;;;23.00;52.48
74975;BME280;64061;50.836;19.138;2022-11-13T04:10:10;100005.53;;;22.97;52.38
74975;BME280;64061;50.836;19.138;2022-11-13T04:13:32;100007.19;;;22.98;52.44
74975;BME280;64061;50.836;19.138;2022-11-13T04:16:54;100006.34;;;22.97;52.32
74975;BME280;64061;50.836;19.138;2022-11-13T04:20:16;100005.25;;;22.98;52.46
74975;BME280;64061;50.836;19.138;2022-11-13T04:23:40;99995.06;;;22.99;52.32
74975;BME280;64061;50.836;19.138;2022-11-13T04:27:02;100000.56;;;22.99;52.19
74975;BME280;64061;50.836;19.138;2022-11-13T04:30:24;99999.75;;;22.98;52.31
74975;BME280;64061;50.836;19.138;2022-11-13T04:33:47;100004.41;;;22.98;52.19
74975;BME280;64061;50.836;19.138;2022-11-13T04:37:09;99996.16;;;22.98;52.20
74975;BME280;64061;50.836;19.138;2022-11-13T04:40:32;99991.50;;;22.98;52.07
74975;BME280;64061;50.836;19.138;2022-11-13T04:43:56;99976.91;;;22.98;52.08
74975;BME280;64061;50.836;19.138;2022-11-13T04:47:17;99983.50;;;22.97;52.13
74975;BME280;64061;50.836;19.138;2022-11-13T04:50:40;99986.25;;;22.97;51.92
74975;BME280;64061;50.836;19.138;2022-11-13T04:54:02;99981.84;;;22.96;51.90
74975;BME280;64061;50.836;19.138;2022-11-13T04:57:26;99982.41;;;22.98;52.01
74975;BME280;64061;50.836;19.138;2022-11-13T05:00:47;99985.44;;;22.96;51.84
74975;BME280;64061;50.836;19.138;2022-11-13T05:04:11;99989.84;;;22.97;51.77
74975;BME280;64061;50.836;19.138;2022-11-13T05:07:34;99990.94;;;22.96;52.09
74975;BME280;64061;50.836;19.138;2022-11-13T05:10:57;99986.25;;;22.97;51.71
74975;BME280;64061;50.836;19.138;2022-11-13T05:14:21;99991.50;;;22.98;51.77
74975;BME280;64061;50.836;19.138;2022-11-13T05:17:43;99984.59;;;22.96;51.69
74975;BME280;64061;50.836;19.138;2022-11-13T05:21:06;99990.94;;;22.96;51.61
74975;BME280;64061;50.836;19.138;2022-11-13T05:24:29;99988.19;;;22.96;51.57
74975;BME280;64061;50.836;19.138;2022-11-13T05:27:51;99986.53;;;22.95;51.65
74975;BME280;64061;50.836;19.138;2022-11-13T05:31:15;99998.34;;;22.96;51.56
74975;BME280;64061;50.836;19.138;2022-11-13T05:34:37;99999.47;;;22.95;51.63
74975;BME280;64061;50.836;19.138;2022-11-13T05:38:00;100001.13;;;22.96;51.46
74975;BME280;64061;50.836;19.138;2022-11-13T05:41:23;100001.13;;;22.96;51.33
74975;BME280;64061;50.836;19.138;2022-11-13T05:44:45;99999.19;;;22.96;51.49
74975;BME280;64061;50.836;19.138;2022-11-13T05:48:08;100005.25;;;22.98;51.37
74975;BME280;64061;50.836;19.138;2022-11-13T05:51:32;100007.72;;;23.00;51.18
74975;BME280;64061;50.836;19.138;2022-11-13T05:54:54;99998.63;;;23.04;51.38
74975;BME280;64061;50.836;19.138;2022-11-13T05:58:17;99989.56;;;23.04;51.50
74975;BME280;64061;50.836;19.138;2022-11-13T06:01:39;99991.22;;;23.05;51.43
74975;BME280;64061;50.836;19.138;2022-11-13T06:05:03;99977.75;;;23.03;51.47
74975;BME280;64061;50.836;19.138;2022-11-13T06:08:26;99983.53;;;23.02;51.74
74975;BME280;64061;50.836;19.138;2022-11-13T06:11:49;99976.38;;;23.01;51.72
74975;BME280;64061;50.836;19.138;2022-11-13T06:15:11;99982.69;;;23.01;51.28
74975;BME280;64061;50.836;19.138;2022-11-13T06:18:34;99982.69;;;23.01;51.04
74975;BME280;64061;50.836;19.138;2022-11-13T06:21:58;99980.78;;;23.02;51.35
74975;BME280;64061;50.836;19.138;2022-11-13T06:25:20;99983.53;;;23.02;50.96
74975;BME280;64061;50.836;19.138;2022-11-13T06:28:42;99987.94;;;23.03;51.23
74975;BME280;64061;50.836;19.138;2022-11-13T06:32:05;99984.63;;;23.01;51.38
74975;BME280;64061;50.836;19.138;2022-11-13T06:35:27;99983.53;;;23.02;51.21
74975;BME280;64061;50.836;19.138;2022-11-13T06:38:51;99983.25;;;23.03;51.22
74975;BME280;64061;50.836;19.138;2022-11-13T06:42:13;99979.94;;;23.01;51.34
74975;BME280;64061;50.836;19.138;2022-11-13T06:45:35;99979.69;;;23.03;51.23
74975;BME280;64061;50.836;19.138;2022-11-13T06:48:58;99989.03;;;23.02;51.10
74975;BME280;64061;50.836;19.138;2022-11-13T06:52:20;99988.19;;;23.01;51.33
74975;BME280;64061;50.836;19.138;2022-11-13T06:55:44;99976.91;;;23.03;51.16
74975;BME280;64061;50.836;19.138;2022-11-13T06:59:07;99983.53;;;23.02;51.31
74975;BME280;64061;50.836;19.138;2022-11-13T07:02:30;99980.50;;;23.03;51.27
74975;BME280;64061;50.836;19.138;2022-11-13T07:05:52;99981.28;;;23.04;51.43
74975;BME280;64061;50.836;19.138;2022-11-13T07:09:14;99978.53;;;23.04;51.30
74975;BME280;64061;50.836;19.138;2022-11-13T07:12:37;99981.03;;;23.05;51.32
74975;BME280;64061;50.836;19.138;2022-11-13T07:16:02;99976.63;;;23.04;51.33
74975;BME280;64061;50.836;19.138;2022-11-13T07:19:36;99983.25;;;23.03;51.40
74975;BME280;64061;50.836;19.138;2022-11-13T07:22:59;99986.00;;;23.03;51.25
74975;BME280;64061;50.836;19.138;2022-11-13T07:26:22;99984.34;;;23.02;51.36
74975;BME280;64061;50.836;19.138;2022-11-13T07:29:46;99985.72;;;23.05;51.00
74975;BME280;64061;50.836;19.138;2022-11-13T07:33:08;99975.78;;;23.04;51.02
74975;BME280;64061;50.836;19.138;2022-11-13T07:36:30;99965.63;;;23.04;51.18
74975;BME280;64061;50.836;19.138;2022-11-13T07:39:52;99975.25;;;23.07;51.08
74975;BME280;64061;50.836;19.138;2022-11-13T07:43:14;99969.19;;;23.05;51.10
74975;BME280;64061;50.836;19.138;2022-11-13T07:46:37;99965.34;;;23.06;51.13
74975;BME280;64061;50.836;19.138;2022-11-13T07:49:59;99965.91;;;23.03;51.03
74975;BME280;64061;50.836;19.138;2022-11-13T07:53:30;99970.59;;;23.02;51.04
74975;BME280;64061;50.836;19.138;2022-11-13T07:56:52;99975.25;;;23.02;51.39
74975;BME280;64061;50.836;19.138;2022-11-13T08:00:15;99971.69;;;23.01;51.26
74975;BME280;64061;50.836;19.138;2022-11-13T08:03:39;99976.38;;;23.01;51.24
74975;BME280;64061;50.836;19.138;2022-11-13T08:07:03;99976.38;;;23.01;50.96
74975;BME280;64061;50.836;19.138;2022-11-13T08:10:25;99981.03;;;23.00;51.34
74975;BME280;64061;50.836;19.138;2022-11-13T08:13:48;99982.69;;;23.01;50.84
74975;BME280;64061;50.836;19.138;2022-11-13T08:17:10;99989.03;;;23.02;50.71
74975;BME280;64061;50.836;19.138;2022-11-13T08:20:33;99989.03;;;23.02;50.86
74975;BME280;64061;50.836;19.138;2022-11-13T08:23:55;99998.38;;;23.01;50.67
74975;BME280;64061;50.836;19.138;2022-11-13T08:27:17;99991.22;;;23.00;50.81
74975;BME280;64061;50.836;19.138;2022-11-13T08:30:42;99997.28;;;23.02;50.62
74975;BME280;64061;50.836;19.138;2022-11-13T08:34:05;99998.66;;;22.99;50.70
74975;BME280;64061;50.836;19.138;2022-11-13T08:37:28;100002.22;;;23.00;50.83
74975;BME280;64061;50.836;19.138;2022-11-13T08:40:54;100015.44;;;22.98;50.76
74975;BME280;64061;50.836;19.138;2022-11-13T08:44:17;100010.75;;;22.98;50.94
74975;BME280;64061;50.836;19.138;2022-11-13T08:47:39;100003.59;;;22.97;50.57
74975;BME280;64061;50.836;19.138;2022-11-13T08:51:02;100003.31;;;22.99;50.50
74975;BME280;64061;50.836;19.138;2022-11-13T08:54:26;100010.50;;;23.00;50.61
74975;BME280;64061;50.836;19.138;2022-11-13T08:57:48;100006.06;;;22.99;50.51
74975;BME280;64061;50.836;19.138;2022-11-13T09:01:10;100000.56;;;22.99;50.40
74975;BME280;64061;50.836;19.138;2022-11-13T09:04:32;100006.91;;;22.99;50.53
74975;BME280;64061;50.836;19.138;2022-11-13T09:07:55;100006.91;;;22.99;49.85
74975;BME280;64061;50.836;19.138;2022-11-13T09:11:19;100009.38;;;23.01;50.27
74975;BME280;64061;50.836;19.138;2022-11-13T09:14:42;100007.19;;;23.03;50.20
74975;BME280;64061;50.836;19.138;2022-11-13T09:18:04;100015.97;;;23.05;51.09
74975;BME280;64061;50.836;19.138;2022-11-13T09:21:27;100014.88;;;23.06;51.28
74975;BME280;64061;50.836;19.138;2022-11-13T09:24:49;100013.22;;;23.05;51.47
74975;BME280;64061;50.836;19.138;2022-11-13T09:28:12;100012.13;;;23.06;51.55
74975;BME280;64061;50.836;19.138;2022-11-13T09:31:34;100004.97;;;23.05;51.75
74975;BME280;64061;50.836;19.138;2022-11-13T09:34:57;100011.88;;;23.07;51.95
74975;BME280;64061;50.836;19.138;2022-11-13T09:38:19;100006.91;;;23.09;51.85
74975;BME280;64061;50.836;19.138;2022-11-13T09:41:46;100001.16;;;23.11;52.09
74975;BME280;64061;50.836;19.138;2022-11-13T09:45:13;99993.97;;;23.10;51.80
74975;BME280;64061;50.836;19.138;2022-11-13T09:48:39;100000.31;;;23.10;51.85
74975;BME280;64061;50.836;19.138;2022-11-13T09:52:09;99998.69;;;23.15;51.70
74975;BME280;64061;50.836;19.138;2022-11-13T09:55:40;99998.13;;;23.13;51.82
74975;BME280;64061;50.836;19.138;2022-11-13T09:59:15;99991.53;;;23.14;51.84
74975;BME280;64061;50.836;19.138;2022-11-13T10:02:54;99992.06;;;23.16;52.94
74975;BME280;64061;50.836;19.138;2022-11-13T10:06:36;99983.81;;;23.16;53.15
74975;BME280;64061;50.836;19.138;2022-11-13T10:10:35;99984.06;;;23.19;53.18
74975;BME280;64061;50.836;19.138;2022-11-13T10:14:16;99976.38;;;23.16;53.38
74975;BME280;64061;50.836;19.138;2022-11-13T10:17:45;99971.41;;;23.18;53.55
74975;BME280;64061;50.836;19.138;2022-11-13T10:21:24;99962.59;;;23.21;53.79
74975;BME280;64061;50.836;19.138;2022-11-13T10:25:01;99965.34;;;23.21;53.76
74975;BME280;64061;50.836;19.138;2022-11-13T10:28:30;99962.06;;;23.19;54.36
74975;BME280;64061;50.836;19.138;2022-11-13T10:36:20;99962.34;;;23.28;53.88
74975;BME280;64061;50.836;19.138;2022-11-13T10:39:52;99957.94;;;23.27;53.80
74975;BME280;64061;50.836;19.138;2022-11-13T10:43:16;99964.53;;;23.31;53.79
74975;BME280;64061;50.836;19.138;2022-11-13T10:46:40;99957.09;;;23.31;53.88
74975;BME280;64061;50.836;19.138;2022-11-13T10:50:10;99956.28;;;23.36;53.41
74975;BME280;64061;50.836;19.138;2022-11-13T10:53:38;99952.44;;;23.37;53.33
74975;BME280;64061;50.836;19.138;2022-11-13T10:57:02;99951.88;;;23.40;53.31
74975;BME280;64061;50.836;19.138;2022-11-13T11:00:30;99951.34;;;23.43;52.98
74975;BME280;64061;50.836;19.138;2022-11-13T11:03:54;99947.44;;;23.44;52.92
74975;BME280;64061;50.836;19.138;2022-11-13T11:07:20;99949.66;;;23.47;52.97
74975;BME280;64061;50.836;19.138;2022-11-13T11:10:54;99933.69;;;23.49;52.51
74975;BME280;64061;50.836;19.138;2022-11-13T11:14:39;99923.50;;;23.44;52.67
74975;BME280;64061;50.836;19.138;2022-11-13T11:18:06;99927.38;;;23.43;52.52
74975;BME280;64061;50.836;19.138;2022-11-13T11:21:42;99924.63;;;23.43;52.35
74975;BME280;64061;50.836;19.138;2022-11-13T11:25:13;99915.50;;;23.48;52.33
74975;BME280;64061;50.836;19.138;2022-11-13T11:28:43;99903.66;;;23.48;52.10
74975;BME280;64061;50.836;19.138;2022-11-13T12:11:07;99858.28;;;21.91;52.96
74975;BME280;64061;50.836;19.138;2022-11-13T20:26:03;99724.44;;;18.94;72.66
74975;BME280;64061;50.836;19.138;2022-11-13T20:29:27;99722.97;;;19.25;72.57
74975;BME280;64061;50.836;19.138;2022-11-13T20:32:51;99721.16;;;19.52;72.11
74975;BME280;64061;50.836;19.138;2022-11-13T20:36:15;99731.28;;;19.79;71.26
74975;BME280;64061;50.836;19.138;2022-11-13T20:39:38;99732.28;;;19.95;71.30
74975;BME280;64061;50.836;19.138;2022-11-13T20:43:03;99717.91;;;20.09;70.54
74975;BME280;64061;50.836;19.138;2022-11-13T20:46:24;99710.88;;;20.18;70.28
74975;BME280;64061;50.836;19.138;2022-11-13T20:49:47;99723.00;;;20.27;70.10
74975;BME280;64061;50.836;19.138;2022-11-13T20:53:09;99723.63;;;20.35;69.70
74975;BME280;64061;50.836;19.138;2022-11-13T20:56:31;99709.72;;;20.41;69.45
74975;BME280;64061;50.836;19.138;2022-11-13T20:59:54;99712.25;;;20.48;68.67
74975;BME280;64061;50.836;19.138;2022-11-13T21:03:18;99709.25;;;20.49;68.89
74975;BME280;64061;50.836;19.138;2022-11-13T21:06:41;99705.41;;;20.50;68.33
74975;BME280;64061;50.836;19.138;2022-11-13T21:10:04;99705.97;;;20.52;68.14
74975;BME280;64061;50.836;19.138;2022-11-13T21:13:27;99708.69;;;20.52;68.06
74975;BME280;64061;50.836;19.138;2022-11-13T21:16:51;99700.22;;;20.54;67.46
74975;BME280;64061;50.836;19.138;2022-11-13T21:20:13;99710.34;;;20.53;67.26
74975;BME280;64061;50.836;19.138;2022-11-13T21:23:36;99697.72;;;20.52;66.89
74975;BME280;64061;50.836;19.138;2022-11-13T21:26:58;99693.34;;;20.51;66.40
74975;BME280;64061;50.836;19.138;2022-11-13T21:30:21;99703.22;;;20.52;66.11
74975;BME280;64061;50.836;19.138;2022-11-13T21:33:46;99705.69;;;20.54;65.72
74975;BME280;64061;50.836;19.138;2022-11-13T21:37:09;99708.97;;;20.51;65.19
74975;BME280;64061;50.836;19.138;2022-11-13T21:40:32;99708.97;;;20.51;65.38
74975;BME280;64061;50.836;19.138;2022-11-13T21:43:56;99707.63;;;20.53;65.52
74975;BME280;64061;50.836;19.138;2022-11-13T21:47:19;99705.97;;;20.52;64.97
74975;BME280;64061;50.836;19.138;2022-11-13T21:50:43;99692.25;;;20.52;64.83
74975;BME280;64061;50.836;19.138;2022-11-13T21:54:05;99686.22;;;20.50;64.54
74975;BME280;64061;50.836;19.138;2022-11-13T21:57:28;99694.47;;;20.50;65.08
74975;BME280;64061;50.836;19.138;2022-11-13T22:00:50;99692.81;;;20.49;64.84
74975;BME280;64061;50.836;19.138;2022-11-13T22:04:12;99682.66;;;20.50;64.72
74975;BME280;64061;50.836;19.138;2022-11-13T22:07:36;99684.28;;;20.51;64.73
74975;BME280;64061;50.836;19.138;2022-11-13T22:10:58;99682.94;;;20.48;64.63
74975;BME280;64061;50.836;19.138;2022-11-13T22:14:20;99681.00;;;20.49;64.90
74975;BME280;64061;50.836;19.138;2022-11-13T22:17:42;99675.78;;;20.47;64.67
74975;BME280;64061;50.836;19.138;2022-11-13T22:21:05;99678.53;;;20.47;64.70
74975;BME280;64061;50.836;19.138;2022-11-13T22:24:31;99676.88;;;20.46;64.51
74975;BME280;64061;50.836;19.138;2022-11-13T22:27:53;99676.31;;;20.44;64.29
74975;BME280;64061;50.836;19.138;2022-11-13T22:31:16;99673.56;;;20.44;64.29
74975;BME280;64061;50.836;19.138;2022-11-13T22:34:40;99675.47;;;20.44;64.15
74975;BME280;64061;50.836;19.138;2022-11-13T22:38:02;99675.47;;;20.44;64.39
74975;BME280;64061;50.836;19.138;2022-11-13T22:41:27;99674.41;;;20.45;64.24
74975;BME280;64061;50.836;19.138;2022-11-13T22:44:51;99667.53;;;20.42;64.27
74975;BME280;64061;50.836;19.138;2022-11-13T22:48:16;99661.22;;;20.42;64.29
74975;BME280;64061;50.836;19.138;2022-11-13T22:51:39;99670.25;;;20.42;64.13
74975;BME280;64061;50.836;19.138;2022-11-13T22:55:02;99665.28;;;20.39;64.14
74975;BME280;64061;50.836;19.138;2022-11-13T22:58:27;99673.25;;;20.41;64.30
74975;BME280;64061;50.836;19.138;2022-11-13T23:01:50;99667.22;;;20.39;64.38
74975;BME280;64061;50.836;19.138;2022-11-13T23:05:12;99663.63;;;20.38;64.45
74975;BME280;64061;50.836;19.138;2022-11-13T23:08:36;99670.25;;;20.37;64.28
74975;BME280;64061;50.836;19.138;2022-11-13T23:11:59;99668.59;;;20.36;64.56
74975;BME280;64061;50.836;19.138;2022-11-13T23:15:22;99655.94;;;20.35;64.36
74975;BME280;64061;50.836;19.138;2022-11-13T23:18:45;99657.84;;;20.35;64.35
74975;BME280;64061;50.836;19.138;2022-11-13T23:22:07;99656.19;;;20.34;64.29
74975;BME280;64061;50.836;19.138;2022-11-13T23:25:31;99654.28;;;20.34;63.91
74975;BME280;64061;50.836;19.138;2022-11-13T23:28:53;99646.59;;;20.31;64.16
74975;BME280;64061;50.836;19.138;2022-11-13T23:32:16;99653.47;;;20.34;64.19
74975;BME280;64061;50.836;19.138;2022-11-13T23:35:39;99655.88;;;20.30;64.24
74975;BME280;64061;50.836;19.138;2022-11-13T23:39:02;99665.19;;;20.29;64.35
74975;BME280;64061;50.836;19.138;2022-11-13T23:42:24;99653.41;;;20.28;64.16
74975;BME280;64061;50.836;19.138;2022-11-13T23:46:06;99661.88;;;20.27;64.36
74975;BME280;64061;50.836;19.138;2022-11-13T23:49:29;99656.16;;;20.28;64.16
74975;BME280;64061;50.836;19.138;2022-11-13T23:52:51;99648.44;;;20.25;64.02
74975;BME280;64061;50.836;19.138;2022-11-13T23:56:13;99650.34;;;20.25;63.69
74975;BME280;64061;50.836;19.138;2022-11-13T23:59:35;99644.88;;;20.25;63.73
